Time;durP1;ratioP1;P1;durP2;ratioP2;P2;SDS_P1;SDS_P2;PMS_P1;PMS_P2;Temp;Humidity;BMP_temperature;BMP_pressure;BME280_temperature;BME280_humidity;BME280_pressure;Samples;Min_cycle;Max_cycle;Signal;HPM_P1;HPM_P2
2023/01/10 00:01:32;;;;;;;0.70;0.70;;;7.00;75.60;;;6.66;61.19;94065.72;5015346;28;20187;-35
2023/01/10 00:03:59;;;;;;;0.80;0.80;;;7.00;75.60;;;6.64;61.25;94062.50;5016079;28;20501;-35
2023/01/10 00:06:26;;;;;;;0.70;0.70;;;7.10;75.60;;;6.66;61.34;94062.31;5015960;28;20220;-35
2023/01/10 00:08:56;;;;;;;0.70;0.70;;;7.10;75.60;;;6.69;61.20;94062.75;5015060;28;20201;-35
2023/01/10 00:14:10;;;;;;;0.70;0.70;;;7.00;75.60;;;6.67;61.35;94067.31;5016200;28;20192;-34
2023/01/10 00:16:38;;;;;;;0.70;0.70;;;7.00;75.70;;;6.63;61.19;94067.88;5015840;28;20201;-37
2023/01/10 00:19:07;;;;;;;0.70;0.70;;;7.00;75.70;;;6.68;61.44;94068.16;5014849;28;20534;-37
2023/01/10 00:21:34;;;;;;;0.70;0.70;;;7.10;75.80;;;6.69;61.41;94069.78;5015859;28;20232;-35
2023/01/10 00:24:15;;;;;;;0.70;0.70;;;7.10;75.70;;;6.69;61.52;94074.97;5016195;28;20208;-35
2023/01/10 00:26:50;;;;;;;0.70;0.70;;;7.10;75.60;;;6.69;61.39;94074.97;5015643;28;20312;-35
2023/01/10 00:29:19;;;;;;;0.70;0.70;;;7.10;75.70;;;6.70;61.28;94081.78;5014535;28;20197;-35
2023/01/10 00:31:47;;;;;;;0.70;0.70;;;7.10;75.60;;;6.68;61.37;94081.19;5013888;28;20224;-34
2023/01/10 00:34:14;;;;;;;0.70;0.70;;;7.10;75.70;;;6.68;61.29;94087.19;5015569;28;20200;-35
2023/01/10 00:36:41;;;;;;;0.70;0.70;;;7.20;75.70;;;6.68;61.61;94087.19;5015457;28;20194;-35
2023/01/10 00:39:10;;;;;;;0.70;0.70;;;7.10;75.70;;;6.66;61.45;94089.16;5015776;28;20221;-36
2023/01/10 00:44:24;;;;;;;0.80;0.80;;;7.10;75.50;;;6.65;61.33;94103.22;5015585;28;20273;-36
2023/01/10 00:46:52;;;;;;;0.70;0.70;;;7.10;75.70;;;6.65;61.55;94099.78;5015333;28;20208;-35
2023/01/10 00:49:20;;;;;;;0.70;0.70;;;7.10;75.70;;;6.64;61.48;94108.59;5015198;28;20202;-35
2023/01/10 00:51:47;;;;;;;0.70;0.70;;;7.10;75.70;;;6.67;61.62;94116.03;5015460;28;20220;-36
2023/01/10 00:54:14;;;;;;;0.70;0.70;;;7.10;75.70;;;6.67;61.67;94122.03;5015670;28;20509;-37
2023/01/10 00:56:41;;;;;;;0.70;0.70;;;7.20;75.70;;;6.67;61.32;94126.47;5014694;28;20198;-37
2023/01/10 00:59:08;;;;;;;0.60;0.60;;;7.20;75.60;;;6.68;61.47;94134.09;5015116;28;20277;-37
2023/01/10 01:01:36;;;;;;;0.70;0.70;;;7.20;75.50;;;6.71;61.24;94133.72;5014512;28;20190;-35
2023/01/10 01:04:03;;;;;;;0.70;0.70;;;7.20;75.40;;;6.69;61.42;94143.53;5015331;28;20193;-35
2023/01/10 01:06:30;;;;;;;0.70;0.70;;;7.20;75.40;;;6.68;61.40;94141.13;5015202;28;20521;-44
2023/01/10 01:08:57;;;;;;;0.60;0.60;;;7.20;75.50;;;6.69;61.33;94151.34;5015328;28;20328;-41
2023/01/10 01:11:25;;;;;;;0.70;0.70;;;7.10;75.50;;;6.67;61.46;94155.13;5015012;28;20704;-37
2023/01/10 01:13:52;;;;;;;0.60;0.60;;;7.10;75.50;;;6.70;61.32;94160.78;5015064;28;20193;-38
2023/01/10 01:16:20;;;;;;;0.70;0.70;;;7.20;75.60;;;6.70;61.39;94159.94;5015095;28;20197;-46
2023/01/10 01:18:47;;;;;;;0.50;0.50;;;7.20;75.40;;;6.70;61.39;94165.16;5014160;28;20213;-38
2023/01/10 01:21:14;;;;;;;0.80;0.80;;;7.20;75.50;;;6.71;61.35;94170.22;5015047;28;20197;-35
2023/01/10 01:23:41;;;;;;;0.70;0.70;;;7.20;76.30;;;6.70;61.15;94173.81;5015302;28;20201;-38
2023/01/10 01:26:09;;;;;;;0.70;0.70;;;7.10;75.40;;;6.71;61.26;94177.22;5015052;28;20241;-35
2023/01/10 01:28:37;;;;;;;0.70;0.70;;;7.10;75.50;;;6.70;61.19;94186.00;5030247;28;20539;-38
2023/01/10 01:31:08;;;;;;;0.70;0.70;;;7.00;75.60;;;6.67;61.44;94184.59;5014120;28;20340;-38
2023/01/10 01:33:36;;;;;;;0.70;0.70;;;7.10;75.70;;;6.69;61.26;94187.03;5015208;28;20185;-36
2023/01/10 01:36:09;;;;;;;0.70;0.70;;;7.10;75.70;;;6.71;61.08;94198.06;5030862;28;20244;-49
2023/01/10 01:38:38;;;;;;;0.70;0.70;;;7.10;75.60;;;6.70;61.39;94201.66;5014836;28;20189;-35
2023/01/10 01:41:55;;;;;;;0.70;0.70;;;7.20;75.60;;;6.70;61.43;94201.66;5014845;28;20213;-38
2023/01/10 01:44:14;;;;;;;0.70;0.70;;;7.20;75.60;;;6.70;61.11;94199.03;5017624;28;20240;-37
2023/01/10 01:46:44;;;;;;;0.70;0.70;;;7.20;75.40;;;6.71;61.21;94203.25;5018924;28;20529;-35
2023/01/10 01:49:21;;;;;;;0.70;0.70;;;7.30;75.30;;;6.70;61.15;94209.47;5017757;28;20182;-43
2023/01/10 01:51:56;;;;;;;0.80;0.80;;;7.30;75.20;;;6.68;61.07;94204.44;5017606;28;20682;-39
2023/01/10 01:54:25;;;;;;;0.70;0.70;;;7.20;75.20;;;6.67;61.25;94213.25;5034033;28;20177;-37
2023/01/10 01:56:59;;;;;;;0.88;0.88;;;7.20;75.30;;;6.66;61.07;94211.63;5018484;28;20194;-37
2023/01/10 01:59:36;;;;;;;0.70;0.70;;;7.10;75.30;;;6.66;60.95;94214.25;5018386;28;20200;-37
2023/01/10 02:02:16;;;;;;;0.70;0.70;;;7.10;75.40;;;6.63;61.21;94224.22;5018843;28;20260;-37
2023/01/10 02:05:08;;;;;;;0.70;0.70;;;7.10;75.30;;;6.62;61.34;94225.25;5018373;28;20186;-37
2023/01/10 02:07:38;;;;;;;0.70;0.70;;;7.10;75.40;;;6.63;61.27;94219.00;5018263;28;20186;-37
2023/01/10 02:10:24;;;;;;;0.70;0.70;;;7.10;75.50;;;6.61;61.36;94231.44;5018063;28;20198;-37
2023/01/10 02:12:55;;;;;;;0.70;0.70;;;7.00;75.60;;;6.62;61.53;94230.44;5018098;28;20240;-37
2023/01/10 02:15:22;;;;;;;0.70;0.70;;;7.10;75.70;;;6.61;61.42;94234.84;5017260;28;20625;-37
2023/01/10 02:17:51;;;;;;;0.80;0.80;;;7.10;75.70;;;6.64;61.53;94231.88;5018038;28;20186;-38
2023/01/10 02:20:21;;;;;;;0.70;0.70;;;7.10;75.70;;;6.62;61.73;94239.06;5017859;28;20185;-37
2023/01/10 02:23:07;;;;;;;0.70;0.70;;;7.10;75.70;;;6.64;61.68;94241.47;5018242;28;20194;-38
2023/01/10 02:26:07;;;;;;;0.70;0.70;;;7.10;75.70;;;6.61;61.48;94244.47;5017900;28;20233;-38
2023/01/10 02:29:02;;;;;;;0.60;0.60;;;7.10;75.70;;;6.62;61.67;94243.47;5017738;28;20216;-39
2023/01/10 02:32:26;;;;;;;0.60;0.60;;;7.10;75.80;;;6.59;61.59;94254.25;5017762;28;20255;-37
2023/01/10 02:36:07;;;;;;;0.70;0.70;;;7.10;75.70;;;6.59;61.69;94260.25;5017751;28;20198;-37
2023/01/10 02:38:42;;;;;;;0.70;0.70;;;7.10;75.60;;;6.60;61.68;94258.47;4995213;28;20578;-41
2023/01/10 02:41:25;;;;;;;0.70;0.70;;;7.20;75.60;;;6.62;61.55;94254.69;5016764;28;20608;-37
2023/01/10 02:44:08;;;;;;;0.70;0.70;;;7.20;75.50;;;6.63;61.53;94253.72;5017610;28;20613;-40
2023/01/10 02:46:37;;;;;;;0.80;0.80;;;7.20;75.50;;;6.63;61.54;94245.91;5017662;28;20236;-38
2023/01/10 02:49:05;;;;;;;0.70;0.70;;;7.20;75.60;;;6.62;61.45;94254.69;5016960;28;20260;-40
2023/01/10 02:51:32;;;;;;;0.80;0.80;;;7.10;75.60;;;6.63;61.78;94268.53;5017346;28;20213;-41
2023/01/10 02:54:07;;;;;;;0.70;0.70;;;7.20;75.60;;;6.64;61.62;94259.72;5017441;28;20207;-41
2023/01/10 02:56:46;;;;;;;0.70;0.70;;;7.20;75.70;;;6.64;61.63;94275.34;5017361;28;20185;-46
2023/01/10 02:59:43;;;;;;;0.70;0.70;;;7.20;76.40;;;6.63;61.64;94266.75;5017340;28;20196;-37
2023/01/10 03:03:01;;;;;;;0.70;0.70;;;7.20;75.60;;;6.64;61.44;94273.56;5017212;28;20193;-37
2023/01/10 03:06:27;;;;;;;0.70;0.70;;;7.20;75.40;;;6.62;61.52;94285.16;4984846;28;20213;-37
2023/01/10 03:09:46;;;;;;;0.70;0.70;;;7.10;75.80;;;6.62;61.80;94283.38;5017216;28;20526;-37
2023/01/10 03:12:36;;;;;;;0.68;0.68;;;7.10;75.90;;;6.60;61.78;94289.75;5016997;28;20672;-37
2023/01/10 03:15:05;;;;;;;0.70;0.70;;;7.10;76.00;;;6.61;62.04;94292.16;5016247;28;20177;-38
2023/01/10 03:17:33;;;;;;;0.77;0.77;;;7.10;76.00;;;6.63;61.88;94292.78;5016340;28;20189;-37
2023/01/10 03:20:06;;;;;;;0.75;0.75;;;7.10;76.00;;;6.62;61.97;94298.19;5032311;28;20198;-37
2023/01/10 03:22:37;;;;;;;0.80;0.80;;;7.10;76.10;;;6.60;62.13;94298.34;5016891;28;20186;-37
2023/01/10 03:25:09;;;;;;;0.90;0.90;;;7.20;76.20;;;6.60;62.52;94305.38;4999712;28;20263;-37
2023/01/10 03:27:52;;;;;;;0.70;0.70;;;7.10;76.30;;;6.57;62.71;94301.34;5016780;28;20186;-37
2023/01/10 03:30:32;;;;;;;0.80;0.80;;;7.20;76.40;;;6.54;62.85;94312.94;5017059;28;20586;-37
2023/01/10 03:32:59;;;;;;;0.80;0.80;;;7.10;76.70;;;6.55;63.07;94311.13;5016844;28;20539;-37
2023/01/10 03:35:59;;;;;;;0.70;0.70;;;7.10;76.70;;;6.53;63.27;94313.94;5016605;28;20194;-37
2023/01/10 03:38:55;;;;;;;0.70;0.70;;;7.10;76.90;;;6.46;63.52;94314.81;5015784;28;20181;-37
2023/01/10 03:41:33;;;;;;;0.70;0.70;;;7.00;77.20;;;6.43;63.91;94310.78;5015759;28;20189;-37
2023/01/10 03:47:29;;;;;;;0.70;0.70;;;6.90;77.80;;;6.35;64.02;94336.94;5015667;28;20201;-37
2023/01/10 03:50:04;;;;;;;0.70;0.70;;;6.90;78.00;;;6.34;64.29;94335.31;5015527;28;20186;-37
2023/01/10 03:52:33;;;;;;;0.70;0.70;;;6.90;77.90;;;6.35;64.53;94339.53;5015429;28;20211;-37
2023/01/10 03:55:02;;;;;;;0.70;0.70;;;6.90;77.90;;;6.35;64.60;94345.53;5015398;28;20683;-41
2023/01/10 03:57:29;;;;;;;0.80;0.80;;;6.90;78.00;;;6.33;64.65;94350.13;5016460;28;20528;-38
2023/01/10 03:59:57;;;;;;;0.70;0.70;;;6.90;78.10;;;6.35;65.15;94352.56;5016156;28;20181;-37
2023/01/10 04:02:28;;;;;;;0.70;0.70;;;6.90;78.10;;;6.35;65.09;94369.00;5016053;28;20594;-38
2023/01/10 04:04:55;;;;;;;0.80;0.80;;;6.80;78.20;;;6.31;65.14;94362.53;5016217;28;20182;-38
2023/01/10 04:07:23;;;;;;;0.70;0.70;;;6.80;78.40;;;6.32;65.31;94369.34;5015921;28;20201;-37
2023/01/10 04:09:50;;;;;;;0.70;0.70;;;6.70;79.40;;;6.32;65.01;94369.34;5016131;28;20189;-41
2023/01/10 04:12:17;;;;;;;0.80;0.80;;;6.60;78.70;;;6.33;64.93;94368.34;5015882;28;20719;-37
2023/01/10 04:14:45;;;;;;;0.70;0.70;;;6.60;78.80;;;6.33;65.19;94373.56;5015940;28;20501;-37
2023/01/10 04:17:14;;;;;;;0.70;0.70;;;6.70;78.80;;;6.35;65.19;94373.41;5015851;28;20194;-38
2023/01/10 04:19:42;;;;;;;0.60;0.60;;;6.70;78.80;;;6.37;64.98;94377.44;5015687;28;20204;-37
2023/01/10 04:22:10;;;;;;;0.70;0.70;;;6.80;78.70;;;6.36;64.97;94370.63;5015808;28;20256;-37
2023/01/10 04:24:37;;;;;;;0.70;0.70;;;6.80;78.60;;;6.37;64.93;94374.84;5015774;28;20198;-37
2023/01/10 04:27:05;;;;;;;0.70;0.70;;;6.80;78.70;;;6.38;65.24;94383.44;5015527;28;20236;-37
2023/01/10 04:29:32;;;;;;;0.70;0.70;;;6.80;78.60;;;6.38;65.18;94383.44;5015460;28;20660;-37
2023/01/10 04:31:59;;;;;;;0.70;0.70;;;6.80;79.40;;;6.38;64.99;94384.28;5015547;28;20214;-35
2023/01/10 04:34:27;;;;;;;0.65;0.65;;;6.80;78.70;;;6.38;64.81;94389.47;5015854;28;20520;-36
2023/01/10 04:36:54;;;;;;;0.60;0.60;;;6.70;78.80;;;6.39;65.08;94392.88;5015594;28;20252;-38
2023/01/10 04:39:21;;;;;;;0.70;0.70;;;6.80;78.70;;;6.42;64.85;94405.56;5015838;28;20189;-36
2023/01/10 04:41:49;;;;;;;0.70;0.70;;;6.90;78.60;;;6.47;64.77;94423.25;5015624;28;20225;-36
2023/01/10 04:44:16;;;;;;;0.70;0.70;;;6.90;78.40;;;6.48;64.76;94411.84;5015497;28;20200;-36
2023/01/10 04:46:44;;;;;;;0.63;0.63;;;7.00;78.30;;;6.52;64.57;94419.13;5015329;28;20205;-38
2023/01/10 04:49:11;;;;;;;0.70;0.70;;;7.10;78.10;;;6.51;64.60;94425.31;5015661;28;20285;-36
2023/01/10 04:51:39;;;;;;;0.70;0.70;;;7.00;78.00;;;6.54;64.39;94426.75;5015424;28;20221;-35
2023/01/10 04:54:06;;;;;;;0.70;0.70;;;7.10;78.10;;;6.56;64.47;94433.41;5015583;28;20205;-35
2023/01/10 04:56:33;;;;;;;0.70;0.70;;;7.10;78.00;;;6.57;64.57;94444.66;5015477;28;20198;-35
2023/01/10 04:59:01;;;;;;;0.70;0.70;;;7.10;77.90;;;6.60;64.25;94449.50;5015256;28;20190;-35
2023/01/10 05:01:28;;;;;;;0.85;0.85;;;7.10;77.90;;;6.56;64.21;94443.81;5015124;28;20686;-36
2023/01/10 05:03:55;;;;;;;0.70;0.70;;;7.10;77.90;;;6.55;64.44;94447.44;5015479;28;20201;-35
2023/01/10 05:06:24;;;;;;;0.70;0.70;;;7.10;77.90;;;6.61;64.44;94465.94;5015427;28;20577;-35
2023/01/10 05:08:52;;;;;;;0.70;0.70;;;7.00;77.90;;;6.55;64.46;94464.84;5015328;28;20216;-35
2023/01/10 05:11:19;;;;;;;0.70;0.70;;;7.00;78.10;;;6.56;64.33;94471.69;5014166;28;20256;-35
2023/01/10 05:13:46;;;;;;;0.70;0.70;;;7.10;78.10;;;6.57;64.29;94481.94;5015603;28;20193;-36
2023/01/10 05:16:14;;;;;;;0.70;0.70;;;7.10;78.10;;;6.56;64.47;94488.13;5030696;28;20193;-35
2023/01/10 05:18:42;;;;;;;0.70;0.70;;;7.00;78.00;;;6.57;64.31;94489.75;5017462;28;20194;-35
2023/01/10 05:21:12;;;;;;;0.77;0.77;;;7.00;78.10;;;6.58;64.52;94498.38;5018194;28;20185;-35
2023/01/10 05:23:39;;;;;;;0.70;0.70;;;7.00;78.20;;;6.56;64.60;94498.53;5019366;28;20193;-35
2023/01/10 05:26:16;;;;;;;0.80;0.80;;;6.90;78.30;;;6.55;64.30;94507.38;5018876;28;20298;-37
2023/01/10 05:28:44;;;;;;;0.70;0.70;;;6.90;78.60;;;6.55;64.42;94503.94;5019069;28;20178;-36
2023/01/10 05:31:14;;;;;;;0.70;0.70;;;6.80;78.60;;;6.54;64.45;94523.16;5018780;28;20201;-35
2023/01/10 05:33:49;;;;;;;0.70;0.70;;;6.90;78.60;;;6.56;64.43;94523.81;5018872;28;20213;-35
2023/01/10 05:36:17;;;;;;;0.70;0.70;;;7.00;78.60;;;6.57;64.61;94528.03;5019024;28;20268;-35
2023/01/10 05:38:45;;;;;;;0.70;0.70;;;7.00;78.50;;;6.53;64.55;94532.78;5018902;28;20186;-36
2023/01/10 05:41:12;;;;;;;0.70;0.70;;;6.90;78.70;;;6.51;64.94;94532.13;5018599;28;20201;-35
2023/01/10 05:43:39;;;;;;;0.70;0.70;;;6.90;78.80;;;6.50;64.90;94540.13;5018125;28;20511;-35
2023/01/10 05:46:06;;;;;;;0.70;0.70;;;6.90;78.70;;;6.51;64.71;94537.34;5018657;28;20189;-35
2023/01/10 05:48:33;;;;;;;0.60;0.60;;;6.90;78.80;;;6.50;64.88;94540.94;5017786;28;20603;-35
2023/01/10 05:51:01;;;;;;;0.63;0.63;;;6.90;78.80;;;6.50;64.82;94553.16;5017610;28;20650;-36
2023/01/10 05:53:28;;;;;;;0.80;0.80;;;6.90;78.80;;;6.51;64.94;94552.97;5017533;28;20214;-36
2023/01/10 05:56:00;;;;;;;0.70;0.70;;;6.90;78.70;;;6.51;64.99;94558.19;5018762;28;20197;-35
2023/01/10 05:58:28;;;;;;;0.80;0.80;;;6.90;78.80;;;6.48;65.27;94566.38;5018449;28;20181;-35
2023/01/10 06:00:57;;;;;;;0.70;0.70;;;6.90;78.80;;;6.51;65.06;94571.22;5018453;28;20204;-35
2023/01/10 06:03:25;;;;;;;0.70;0.70;;;6.90;78.80;;;6.51;65.34;94565.22;5018744;28;20256;-36
2023/01/10 06:05:54;;;;;;;0.70;0.70;;;6.90;78.80;;;6.47;65.06;94572.56;5018378;28;20205;-35
2023/01/10 06:08:21;;;;;;;0.70;0.70;;;6.90;78.90;;;6.48;65.04;94575.97;5018385;28;20251;-36
2023/01/10 06:10:49;;;;;;;0.70;0.70;;;6.80;79.00;;;6.46;65.29;94576.16;5018027;28;20198;-35
2023/01/10 06:13:16;;;;;;;0.70;0.70;;;6.90;78.90;;;6.45;65.12;94589.38;5017270;28;20217;-36
2023/01/10 06:15:44;;;;;;;0.70;0.70;;;6.90;79.70;;;6.45;65.25;94590.16;5018144;28;20216;-35
2023/01/10 06:18:11;;;;;;;0.70;0.70;;;6.90;78.90;;;6.47;65.33;94587.38;5018318;28;20267;-36
2023/01/10 06:20:42;;;;;;;0.80;0.80;;;6.80;78.90;;;6.45;65.02;94597.97;5017956;28;20671;-36
2023/01/10 06:23:09;;;;;;;0.70;0.70;;;6.90;78.90;;;6.47;65.07;94603.84;5018286;28;20200;-37
2023/01/10 06:25:39;;;;;;;0.70;0.70;;;6.90;78.80;;;6.47;64.97;94603.00;5017770;28;20233;-36
2023/01/10 06:28:08;;;;;;;0.70;0.70;;;6.90;78.80;;;6.49;65.10;94608.84;5017897;28;20203;-35
2023/01/10 06:30:36;;;;;;;0.70;0.70;;;6.90;78.90;;;6.50;64.95;94621.69;5016395;28;20252;-36
2023/01/10 06:33:06;;;;;;;0.68;0.68;;;7.00;78.90;;;6.52;65.25;94624.97;5017864;28;20232;-37
2023/01/10 06:35:34;;;;;;;0.80;0.80;;;7.00;78.80;;;6.52;65.05;94634.59;5018024;28;20178;-38
2023/01/10 06:38:02;;;;;;;0.70;0.70;;;7.00;78.80;;;6.51;65.16;94636.34;5017701;28;20197;-36
2023/01/10 06:40:29;;;;;;;0.70;0.70;;;6.90;78.80;;;6.51;65.01;94651.19;5017646;28;20524;-37
2023/01/10 06:42:57;;;;;;;0.70;0.70;;;6.90;78.80;;;6.54;64.92;94656.03;5017873;28;20209;-35
2023/01/10 06:45:25;;;;;;;0.80;0.80;;;7.00;78.70;;;6.55;64.91;94678.50;5017597;28;20201;-35
2023/01/10 06:47:52;;;;;;;0.70;0.70;;;7.00;78.60;;;6.55;65.04;94657.66;5017821;28;20537;-35
2023/01/10 06:50:19;;;;;;;0.70;0.70;;;7.10;78.60;;;6.53;64.97;94663.06;5017363;28;20699;-35
2023/01/10 06:53:00;;;;;;;0.70;0.70;;;7.10;78.60;;;6.52;64.98;94664.03;5017451;28;20221;-35
2023/01/10 06:55:27;;;;;;;0.70;0.70;;;7.10;78.60;;;6.52;64.92;94669.25;5017483;28;20178;-35
2023/01/10 06:58:03;;;;;;;0.60;0.60;;;7.00;78.50;;;6.52;64.69;94676.28;5017365;28;20197;-35
2023/01/10 07:00:31;;;;;;;0.70;0.70;;;7.00;78.60;;;6.51;65.16;94682.47;5017440;28;20181;-35
2023/01/10 07:02:59;;;;;;;0.70;0.70;;;7.00;78.50;;;6.52;65.00;94678.88;5017218;28;20533;-35
2023/01/10 07:05:26;;;;;;;0.70;0.70;;;6.90;78.60;;;6.52;64.74;94689.28;5017201;28;20201;-35
2023/01/10 07:07:53;;;;;;;0.70;0.70;;;6.90;78.60;;;6.53;64.80;94689.13;5017157;28;20686;-35
2023/01/10 07:10:20;;;;;;;0.70;0.70;;;6.90;78.60;;;6.52;64.38;94689.28;5017260;28;20224;-35
2023/01/10 07:12:47;;;;;;;0.70;0.70;;;6.90;78.60;;;6.51;64.54;94695.47;5017029;28;20279;-35
2023/01/10 07:15:14;;;;;;;0.70;0.70;;;6.90;78.50;;;6.53;64.65;94704.75;5017387;28;20193;-35
2023/01/10 07:17:41;;;;;;;0.70;0.70;;;7.00;78.40;;;6.55;64.62;94710.63;5016963;28;20190;-35
2023/01/10 07:20:09;;;;;;;0.60;0.60;;;7.00;79.20;;;6.53;64.12;94704.75;5016732;28;20209;-35
2023/01/10 07:22:36;;;;;;;0.70;0.70;;;6.80;78.50;;;6.53;64.48;94709.13;5016902;28;20259;-35
2023/01/10 07:25:05;;;;;;;0.70;0.70;;;6.80;78.60;;;6.54;64.56;94708.97;5016704;28;20689;-35
2023/01/10 07:27:32;;;;;;;0.80;0.80;;;6.80;78.60;;;6.53;64.19;94719.56;5016830;28;20181;-35
2023/01/10 07:29:59;;;;;;;0.70;0.70;;;6.90;78.70;;;6.55;64.69;94718.44;5016799;28;20260;-35
2023/01/10 07:32:27;;;;;;;0.70;0.70;;;6.90;78.60;;;6.60;64.52;94727.50;5016738;28;20218;-37
2023/01/10 07:34:54;;;;;;;0.70;0.70;;;7.00;78.40;;;6.60;64.26;94728.31;5016690;28;20189;-35
2023/01/10 07:37:21;;;;;;;0.70;0.70;;;7.00;78.30;;;6.59;64.36;94737.09;5016588;28;20200;-36
2023/01/10 07:39:48;;;;;;;0.70;0.70;;;7.00;78.40;;;6.59;64.32;94739.72;5032067;28;20205;-36
2023/01/10 07:42:15;;;;;;;0.70;0.70;;;7.00;78.40;;;6.61;64.25;94739.56;5016229;28;20225;-36
2023/01/10 07:44:42;;;;;;;0.70;0.70;;;7.00;78.30;;;6.62;64.40;94744.59;5016816;28;20185;-35
2023/01/10 07:47:09;;;;;;;0.70;0.70;;;7.10;78.30;;;6.63;64.23;94759.25;5016387;28;20664;-36
2023/01/10 07:49:37;;;;;;;0.70;0.70;;;7.10;78.20;;;6.67;64.08;94759.72;5015543;28;20204;-36
2023/01/10 07:52:06;;;;;;;0.63;0.63;;;7.00;78.00;;;6.65;63.96;94772.94;5016197;28;20629;-37
2023/01/10 07:54:34;;;;;;;0.80;0.80;;;7.00;78.30;;;6.61;64.06;94765.63;5016271;28;20633;-36
2023/01/10 07:57:02;;;;;;;0.70;0.70;;;6.90;78.30;;;6.65;64.02;94778.16;5016485;28;20197;-36
2023/01/10 07:59:29;;;;;;;0.70;0.70;;;7.00;78.40;;;6.65;64.17;94790.34;5016454;28;20613;-35
2023/01/10 08:01:56;;;;;;;0.70;0.70;;;7.10;78.30;;;6.65;64.02;94785.97;5015939;28;20189;-36
2023/01/10 08:04:23;;;;;;;0.70;0.70;;;7.10;78.20;;;6.69;64.00;94787.25;5016086;28;20194;-35
2023/01/10 08:06:53;;;;;;;0.70;0.70;;;7.10;78.10;;;6.70;63.95;94790.66;5016068;28;20204;-36
2023/01/10 08:09:20;;;;;;;0.70;0.70;;;7.20;78.10;;;6.74;63.46;94794.56;5016027;28;20193;-37
2023/01/10 08:11:47;;;;;;;0.70;0.70;;;7.10;77.90;;;6.71;63.74;94803.53;5015897;28;20700;-36
2023/01/10 08:14:15;;;;;;;0.60;0.60;;;7.10;78.00;;;6.72;63.70;94806.94;5015871;28;20217;-36
2023/01/10 08:16:42;;;;;;;0.80;0.80;;;7.10;77.90;;;6.74;63.89;94807.59;5015894;28;20679;-35
2023/01/10 08:19:11;;;;;;;0.70;0.70;;;7.20;77.90;;;6.76;63.46;94816.03;5015882;28;20198;-35
2023/01/10 08:21:38;;;;;;;0.80;0.80;;;7.20;77.80;;;6.76;63.42;94807.41;5015674;28;20208;-35
2023/01/10 08:24:05;;;;;;;0.70;0.70;;;7.10;77.60;;;6.77;63.30;94824.69;5014899;28;20516;-38
2023/01/10 08:26:33;;;;;;;0.70;0.70;;;7.10;77.60;;;6.76;63.50;94813.41;5015980;28;20237;-35
2023/01/10 08:29:00;;;;;;;0.70;0.70;;;7.10;77.70;;;6.78;63.55;94814.06;5015865;28;20574;-37
2023/01/10 08:31:27;;;;;;;0.60;0.60;;;7.10;77.70;;;6.80;63.49;94822.53;5015746;28;20205;-35
2023/01/10 08:33:55;;;;;;;0.70;0.70;;;7.10;77.80;;;6.83;63.34;94835.22;5015550;28;20232;-35
2023/01/10 08:36:23;;;;;;;0.70;0.70;;;7.20;77.80;;;6.82;63.16;94836.22;5015824;28;20272;-36
2023/01/10 08:38:52;;;;;;;0.90;0.90;;;7.20;77.80;;;6.87;63.19;94846.13;5015601;28;20193;-35
2023/01/10 08:41:19;;;;;;;0.70;0.70;;;7.20;78.40;;;6.89;63.29;94838.94;5014744;28;20213;-35
2023/01/10 08:43:49;;;;;;;0.80;0.80;;;7.30;77.60;;;6.92;63.24;94849.06;5015487;28;20197;-35
2023/01/10 08:46:18;;;;;;;0.70;0.70;;;7.30;77.50;;;6.96;63.26;94857.34;5015936;28;20185;-35
2023/01/10 08:48:47;;;;;;;0.70;0.70;;;7.40;77.60;;;6.99;63.17;94854.38;5015483;28;20275;-35
2023/01/10 08:51:14;;;;;;;0.70;0.70;;;7.50;77.40;;;7.03;63.03;94868.69;5015219;28;20202;-35
2023/01/10 08:53:42;;;;;;;0.70;0.70;;;7.50;77.30;;;7.05;62.94;94854.53;5014792;28;20236;-35
2023/01/10 08:56:10;;;;;;;0.77;0.77;;;7.50;77.00;;;7.07;62.85;94862.16;5015725;28;20193;-35
2023/01/10 08:58:37;;;;;;;0.70;0.70;;;7.50;77.10;;;7.07;62.68;94862.16;5015540;28;20236;-35
2023/01/10 09:01:07;;;;;;;0.70;0.70;;;7.50;77.10;;;7.05;62.65;94872.78;5015355;28;20197;-35
2023/01/10 09:03:34;;;;;;;0.70;0.70;;;7.50;77.10;;;7.05;62.41;94869.34;5015494;28;20550;-36
2023/01/10 09:06:01;;;;;;;0.70;0.70;;;7.50;77.00;;;7.09;62.59;94872.44;5014576;28;20205;-35
2023/01/10 09:08:28;;;;;;;0.73;0.73;;;7.50;77.20;;;7.10;62.45;94881.88;5015188;28;20251;-37
2023/01/10 09:11:01;;;;;;;0.80;0.80;;;7.50;77.10;;;7.13;62.46;94881.53;5015138;28;20193;-35
2023/01/10 09:13:28;;;;;;;0.70;0.70;;;7.50;77.10;;;7.16;62.15;94889.03;5015374;28;20220;-36
2023/01/10 09:15:58;;;;;;;0.70;0.70;;;7.50;76.80;;;7.14;62.31;94880.53;5015128;28;20255;-35
2023/01/10 09:18:25;;;;;;;0.70;0.70;;;7.50;77.00;;;7.16;62.32;94887.22;5015098;28;20205;-36
2023/01/10 09:20:53;;;;;;;0.70;0.70;;;7.60;77.00;;;7.19;62.04;94905.13;5014941;28;20193;-35
2023/01/10 09:23:22;;;;;;;0.70;0.70;;;7.60;76.60;;;7.23;62.09;94895.19;5015005;28;20663;-35
2023/01/10 09:25:53;;;;;;;0.80;0.80;;;7.50;76.80;;;7.20;61.84;94903.34;5014988;28;20256;-36
2023/01/10 09:28:25;;;;;;;0.70;0.70;;;7.50;76.80;;;7.25;61.83;94910.66;5015235;28;20512;-36
2023/01/10 09:30:52;;;;;;;0.80;0.80;;;7.50;76.80;;;7.21;61.74;94913.63;5015112;28;20196;-36
2023/01/10 09:33:19;;;;;;;0.70;0.70;;;7.50;76.60;;;7.20;61.70;94906.78;5014843;28;20548;-35
2023/01/10 09:35:46;;;;;;;0.80;0.80;;;7.50;76.70;;;7.24;61.89;94916.84;5014968;28;20194;-36
2023/01/10 09:38:17;;;;;;;0.60;0.60;;;7.60;76.80;;;7.27;61.43;94919.13;5030388;28;20220;-36
2023/01/10 09:41:07;;;;;;;0.70;0.70;;;7.50;76.20;;;7.31;61.35;94918.63;5015173;28;20477;-36
2023/01/10 09:44:05;;;;;;;0.70;0.70;;;7.50;76.20;;;7.30;61.67;94924.81;5014897;28;20236;-36
2023/01/10 09:47:08;;;;;;;0.70;0.70;;;7.60;76.50;;;7.32;61.74;94940.28;5014818;28;20182;-36
2023/01/10 09:50:24;;;;;;;0.70;0.70;;;7.70;76.60;;;7.36;61.37;94933.75;5010955;28;20218;-36
2023/01/10 09:53:28;;;;;;;0.80;0.80;;;7.70;76.40;;;7.39;61.32;94943.03;5013775;28;20197;-36
2023/01/10 09:55:58;;;;;;;0.80;0.80;;;7.80;76.10;;;7.44;61.50;94951.97;4954974;29;20188;-36
2023/01/10 09:58:29;;;;;;;0.70;0.70;;;7.80;76.10;;;7.47;60.75;94958.63;5001979;28;20205;-36
2023/01/10 10:01:06;;;;;;;0.70;0.70;;;7.80;75.90;;;7.49;60.98;94946.25;5014658;28;20273;-36
2023/01/10 10:03:53;;;;;;;0.70;0.70;;;7.80;76.00;;;7.51;61.01;94941.69;5015317;28;20578;-36
2023/01/10 10:06:22;;;;;;;0.70;0.70;;;7.90;75.70;;;7.52;60.41;94954.53;5017512;28;20196;-36
2023/01/10 10:08:51;;;;;;;0.70;0.70;;;7.90;75.40;;;7.56;59.74;94957.63;5017404;28;20259;-36
2023/01/10 10:11:44;;;;;;;0.70;0.70;;;7.70;75.20;;;7.51;60.63;94963.34;5018151;28;20656;-36
2023/01/10 10:14:23;;;;;;;0.60;0.60;;;7.70;76.00;;;7.53;60.42;94950.94;5018376;28;20233;-36
2023/01/10 10:17:05;;;;;;;0.77;0.77;;;7.70;75.90;;;7.52;60.28;94958.97;5017370;28;20182;-36
2023/01/10 10:20:09;;;;;;;0.70;0.70;;;7.60;75.70;;;7.49;60.60;94974.94;5018319;28;20671;-36
2023/01/10 10:22:45;;;;;;;0.70;0.70;;;7.60;75.80;;;7.48;60.30;94962.88;5000852;28;20207;-36
2023/01/10 10:25:44;;;;;;;0.70;0.70;;;7.70;75.90;;;7.50;60.21;94981.81;5018019;28;20248;-36
2023/01/10 10:28:41;;;;;;;0.70;0.70;;;7.70;75.70;;;7.50;60.28;94959.09;5017956;28;20186;-36
2023/01/10 10:31:52;;;;;;;0.70;0.70;;;7.70;75.70;;;7.45;60.50;94971.06;5017663;28;20629;-36
2023/01/10 10:34:36;;;;;;;0.90;0.90;;;7.60;75.80;;;7.50;60.69;94969.56;5017634;28;20300;-36
2023/01/10 10:37:16;;;;;;;0.70;0.70;;;7.70;75.90;;;7.62;60.19;94969.97;5018108;28;20268;-36
2023/01/10 10:40:00;;;;;;;0.70;0.70;;;7.80;75.40;;;7.69;60.03;94980.56;5017786;28;20216;-36
2023/01/10 10:42:35;;;;;;;0.70;0.70;;;7.80;75.20;;;7.81;60.10;94978.34;5016882;28;20182;-36
2023/01/10 10:45:46;;;;;;;0.70;0.70;;;7.90;75.30;;;7.84;59.72;94968.38;5016843;28;20627;-36
2023/01/10 10:48:22;;;;;;;0.70;0.70;;;8.00;75.40;;;7.92;58.87;94977.16;5017620;28;20688;-37
2023/01/10 10:51:01;;;;;;;0.70;0.70;;;7.90;74.90;;;7.92;59.04;94974.53;5017668;28;20178;-36
2023/01/10 10:53:30;;;;;;;0.70;0.70;;;8.00;75.10;;;7.94;58.84;94981.22;5017357;28;20205;-36
2023/01/10 10:55:59;;;;;;;0.70;0.70;;;8.10;74.80;;;7.98;58.61;94984.28;5017682;28;20212;-36
2023/01/10 10:58:29;;;;;;;0.70;0.70;;;8.10;74.70;;;7.99;58.80;94991.94;5016485;28;20194;-36
2023/01/10 11:00:59;;;;;;;0.70;0.70;;;8.10;74.90;;;8.01;58.59;94982.13;5016632;28;20182;-36
2023/01/10 11:03:44;;;;;;;0.70;0.70;;;8.20;74.60;;;8.01;58.42;94989.19;5016556;28;20572;-36
2023/01/10 11:06:13;;;;;;;0.70;0.70;;;8.20;74.60;;;7.99;58.24;94985.91;5016895;28;20211;-36